Time;durP1;ratioP1;P1;durP2;ratioP2;P2;SDS_P1;SDS_P2;PMS_P1;PMS_P2;Temp;Humidity;BMP_temperature;BMP_pressure;BME280_temperature;BME280_humidity;BME280_pressure;Samples;Min_cycle;Max_cycle;Signal;HPM_P1;HPM_P2
2022/03/12 00:00:30;;;;;;;9.73;5.83;;;7.10;49.30;;;;;;10388963;28;20223;-73
2022/03/12 00:05:32;;;;;;;8.33;6.03;;;7.00;49.30;;;;;;10379006;28;20245;-73
2022/03/12 00:10:33;;;;;;;11.73;6.50;;;7.00;49.40;;;;;;10388404;28;20217;-73
2022/03/12 00:15:35;;;;;;;7.97;6.13;;;6.90;49.60;;;;;;10390830;28;20229;-73
2022/03/12 00:20:36;;;;;;;7.17;5.53;;;6.90;49.60;;;;;;10392172;28;20244;-73
2022/03/12 00:25:40;;;;;;;8.87;5.73;;;6.80;49.40;;;;;;10396921;28;20232;-75
2022/03/12 00:30:42;;;;;;;8.87;5.83;;;6.80;49.60;;;;;;10390554;28;20359;-73
2022/03/12 00:35:42;;;;;;;10.53;5.77;;;6.70;49.60;;;;;;10383820;28;20217;-72
2022/03/12 00:40:43;;;;;;;7.13;5.57;;;6.60;49.50;;;;;;10391894;28;20229;-73
2022/03/12 00:45:44;;;;;;;9.20;5.67;;;6.60;49.60;;;;;;10382417;28;20225;-72
2022/03/12 00:50:45;;;;;;;9.03;5.97;;;6.60;49.60;;;;;;10390854;28;20212;-74
2022/03/12 00:55:48;;;;;;;8.30;5.77;;;6.60;49.50;;;;;;10391688;28;20262;-72
2022/03/12 01:00:49;;;;;;;12.17;5.73;;;6.60;49.60;;;;;;10397345;28;20221;-73
2022/03/12 01:05:50;;;;;;;7.57;5.30;;;6.60;49.50;;;;;;10390768;28;20574;-74
2022/03/12 01:10:51;;;;;;;7.50;5.63;;;6.60;49.70;;;;;;10395955;28;20740;-73
2022/03/12 01:15:52;;;;;;;9.67;6.30;;;6.60;49.70;;;;;;10383670;28;20275;-72
2022/03/12 01:20:53;;;;;;;8.07;6.37;;;6.50;50.00;;;;;;10389565;28;20757;-73
2022/03/12 01:25:54;;;;;;;9.03;6.27;;;6.50;49.90;;;;;;10397318;28;20262;-72
2022/03/12 01:30:54;;;;;;;8.80;5.70;;;6.40;50.10;;;;;;10402771;28;20216;-73
2022/03/12 01:35:56;;;;;;;8.13;5.37;;;6.40;49.90;;;;;;10389379;28;20293;-72
2022/03/12 01:40:56;;;;;;;8.40;5.80;;;6.40;50.00;;;;;;10406087;28;20236;-73
2022/03/12 01:46:01;;;;;;;9.63;6.00;;;6.30;50.10;;;;;;10390136;28;20224;-72
2022/03/12 01:51:02;;;;;;;7.73;5.50;;;6.30;50.30;;;;;;10398878;28;20236;-72
2022/03/12 01:56:03;;;;;;;9.13;5.83;;;6.30;50.30;;;;;;10390071;28;20232;-72
2022/03/12 02:01:04;;;;;;;9.13;5.57;;;6.30;50.20;;;;;;10390040;28;20220;-73
2022/03/12 02:06:05;;;;;;;10.20;6.27;;;6.30;50.40;;;;;;10397868;28;20314;-73
2022/03/12 02:11:06;;;;;;;8.63;5.60;;;6.20;50.50;;;;;;10384686;28;20243;-73
2022/03/12 02:16:09;;;;;;;8.97;5.47;;;6.20;50.50;;;;;;10390076;28;20750;-73
2022/03/12 02:21:10;;;;;;;7.70;5.33;;;6.20;50.50;;;;;;10396934;28;20262;-73
2022/03/12 02:26:10;;;;;;;9.27;6.03;;;6.10;50.50;;;;;;10402826;28;20771;-73
2022/03/12 02:31:13;;;;;;;9.07;5.70;;;6.10;50.50;;;;;;10392949;28;20209;-73
2022/03/12 02:36:14;;;;;;;8.37;5.67;;;6.10;50.80;;;;;;10390399;28;20249;-73
2022/03/12 02:41:15;;;;;;;12.83;5.50;;;6.20;50.90;;;;;;10387564;28;20228;-73
2022/03/12 02:46:17;;;;;;;11.00;5.73;;;6.10;50.70;;;;;;10389311;28;20228;-73
2022/03/12 02:51:22;;;;;;;9.80;5.50;;;6.10;50.90;;;;;;10388858;28;20585;-73
2022/03/12 02:56:23;;;;;;;8.30;5.20;;;6.10;51.10;;;;;;10394533;28;20961;-73
2022/03/12 03:01:26;;;;;;;10.97;5.80;;;6.10;51.20;;;;;;10403743;28;20221;-73
2022/03/12 03:06:27;;;;;;;12.53;6.17;;;6.10;51.00;;;;;;10386471;28;20233;-73
2022/03/12 03:11:29;;;;;;;9.50;5.40;;;6.10;51.20;;;;;;10391207;28;20220;-72
2022/03/12 03:16:30;;;;;;;8.23;5.50;;;6.10;51.20;;;;;;10391407;28;20225;-72
2022/03/12 03:21:32;;;;;;;8.03;5.67;;;6.20;51.30;;;;;;10389787;28;20274;-72
2022/03/12 03:26:39;;;;;;;10.17;5.23;;;6.20;51.50;;;;;;10398496;28;20229;-73
2022/03/12 03:31:39;;;;;;;8.33;6.07;;;6.20;51.50;;;;;;10388927;28;20308;-72
2022/03/12 03:36:40;;;;;;;9.43;5.47;;;6.20;51.30;;;;;;10399052;28;20311;-74
2022/03/12 03:41:42;;;;;;;9.53;5.93;;;6.10;51.50;;;;;;10387544;28;20320;-73
2022/03/12 03:46:42;;;;;;;9.30;5.57;;;6.10;51.80;;;;;;10397783;28;20276;-72
2022/03/12 03:51:44;;;;;;;8.70;5.63;;;6.00;51.80;;;;;;10383890;28;20625;-74
2022/03/12 03:56:45;;;;;;;10.77;5.90;;;5.90;52.10;;;;;;10394191;28;20253;-74
2022/03/12 04:01:47;;;;;;;9.13;6.17;;;5.80;52.40;;;;;;10377477;28;20249;-74
2022/03/12 04:06:47;;;;;;;9.90;5.83;;;5.80;52.60;;;;;;10392132;28;20236;-74
2022/03/12 04:11:48;;;;;;;8.90;5.83;;;5.60;52.60;;;;;;10391179;28;20233;-74
2022/03/12 04:16:49;;;;;;;9.30;6.03;;;5.50;53.00;;;;;;10391653;28;20223;-73
2022/03/12 04:21:50;;;;;;;7.63;5.73;;;5.50;53.10;;;;;;10397293;28;20216;-74
2022/03/12 04:26:50;;;;;;;10.10;5.80;;;5.40;53.30;;;;;;10388694;28;20324;-74
2022/03/12 04:31:51;;;;;;;8.13;6.20;;;5.30;53.40;;;;;;10390490;28;20220;-73
2022/03/12 04:36:52;;;;;;;11.20;6.00;;;5.30;53.50;;;;;;10396141;28;20816;-73
2022/03/12 04:41:53;;;;;;;8.30;5.40;;;5.30;53.60;;;;;;10381877;28;20703;-74
2022/03/12 04:46:54;;;;;;;12.37;6.17;;;5.30;53.60;;;;;;10385207;28;20229;-73
2022/03/12 04:51:54;;;;;;;9.57;6.33;;;5.30;53.90;;;;;;10391028;28;20224;-72
2022/03/12 04:57:02;;;;;;;14.23;6.43;;;5.20;54.00;;;;;;10399468;28;20306;-73
2022/03/12 05:02:03;;;;;;;10.10;5.93;;;5.20;54.00;;;;;;10398244;28;20212;-73
2022/03/12 05:07:13;;;;;;;8.37;6.13;;;5.10;54.00;;;;;;10392197;28;20225;-73
2022/03/12 05:12:14;;;;;;;10.40;5.87;;;5.10;54.20;;;;;;10386974;28;20232;-73
2022/03/12 05:17:15;;;;;;;7.37;5.40;;;5.10;54.20;;;;;;10390926;28;20225;-73
2022/03/12 05:22:16;;;;;;;7.07;5.60;;;5.00;54.20;;;;;;10398436;28;20221;-72
2022/03/12 05:27:17;;;;;;;7.70;6.20;;;5.00;54.30;;;;;;10384026;28;20241;-72
2022/03/12 05:32:18;;;;;;;9.07;5.87;;;4.90;54.30;;;;;;10396011;28;20222;-72
2022/03/12 05:37:19;;;;;;;9.27;5.53;;;4.90;54.40;;;;;;10384731;28;20228;-72
2022/03/12 05:42:22;;;;;;;8.10;5.93;;;4.80;54.70;;;;;;10396235;28;20307;-73
2022/03/12 05:47:23;;;;;;;8.30;6.70;;;4.80;54.80;;;;;;10397609;28;20232;-73
2022/03/12 05:52:24;;;;;;;8.37;6.10;;;4.70;54.80;;;;;;10389676;28;20688;-73
2022/03/12 05:57:29;;;;;;;8.67;5.83;;;4.70;55.10;;;;;;10387131;28;20259;-73
2022/03/12 06:02:30;;;;;;;9.23;6.17;;;4.80;55.20;;;;;;10389627;28;20697;-72
2022/03/12 06:07:32;;;;;;;11.63;5.97;;;4.80;55.20;;;;;;10378633;28;20298;-74
2022/03/12 06:12:32;;;;;;;11.63;5.83;;;4.90;55.30;;;;;;10382048;28;20738;-72
2022/03/12 06:17:39;;;;;;;8.50;5.60;;;5.00;55.20;;;;;;10386917;28;20204;-73
2022/03/12 06:22:41;;;;;;;13.80;6.30;;;5.10;54.60;;;;;;10391997;28;20537;-74
2022/03/12 06:27:42;;;;;;;8.87;6.03;;;5.10;54.60;;;;;;10397868;28;20233;-74
2022/03/12 06:32:43;;;;;;;8.80;6.03;;;5.20;54.30;;;;;;10395096;28;20216;-73
2022/03/12 06:37:45;;;;;;;10.67;5.70;;;5.40;54.00;;;;;;10388718;28;20217;-73
2022/03/12 06:42:50;;;;;;;9.30;5.83;;;5.60;53.50;;;;;;10400455;28;20221;-73
2022/03/12 06:47:51;;;;;;;8.00;6.07;;;5.70;53.50;;;;;;10395038;28;20255;-73
2022/03/12 06:52:52;;;;;;;8.17;5.53;;;5.90;52.90;;;;;;10403417;28;20221;-72
2022/03/12 06:57:54;;;;;;;7.30;5.53;;;6.10;52.50;;;;;;10396319;28;20220;-73
2022/03/12 07:02:55;;;;;;;8.10;5.87;;;6.40;52.40;;;;;;10398614;28;20635;-73
2022/03/12 07:07:56;;;;;;;11.97;6.37;;;6.60;51.50;;;;;;10387847;28;20716;-72
2022/03/12 07:12:57;;;;;;;8.87;6.00;;;6.90;51.50;;;;;;10405692;28;20267;-74
2022/03/12 07:17:57;;;;;;;6.77;5.60;;;7.20;50.20;;;;;;10393167;28;20263;-73
2022/03/12 07:22:58;;;;;;;9.60;5.87;;;7.30;50.00;;;;;;10386327;28;20270;-74
2022/03/12 07:28:00;;;;;;;9.77;6.00;;;7.50;50.00;;;;;;10400623;28;20647;-74
2022/03/12 07:33:00;;;;;;;10.00;6.43;;;7.60;50.00;;;;;;10401673;28;20216;-73
2022/03/12 07:38:01;;;;;;;9.00;6.10;;;7.70;49.80;;;;;;10399761;28;20221;-73
2022/03/12 07:43:03;;;;;;;8.13;6.33;;;9.30;47.90;;;;;;10405312;28;20248;-74
2022/03/12 07:48:05;;;;;;;9.97;6.30;;;11.30;43.80;;;;;;10393832;28;20290;-72
2022/03/12 07:53:09;;;;;;;9.27;6.10;;;12.80;40.50;;;;;;10399797;28;20225;-75
2022/03/12 07:58:09;;;;;;;8.77;6.27;;;12.80;39.80;;;;;;10383502;28;20241;-69
2022/03/12 08:03:10;;;;;;;9.90;6.40;;;12.40;40.30;;;;;;10384304;28;20232;-70
2022/03/12 08:08:11;;;;;;;9.00;6.30;;;12.60;42.80;;;;;;10386913;28;20228;-70
2022/03/12 08:13:12;;;;;;;7.57;6.37;;;14.30;42.10;;;;;;10389691;28;20223;-68
2022/03/12 08:18:12;;;;;;;9.23;6.47;;;15.70;37.50;;;;;;10393692;28;20239;-69
2022/03/12 08:23:13;;;;;;;8.33;6.73;;;15.00;36.80;;;;;;10390801;28;20803;-69
2022/03/12 08:28:14;;;;;;;9.47;6.37;;;15.50;36.30;;;;;;10399742;28;20764;-69
2022/03/12 08:33:14;;;;;;;11.37;7.00;;;15.20;36.70;;;;;;10382861;28;20315;-69
2022/03/12 08:38:15;;;;;;;8.63;6.60;;;15.10;37.70;;;;;;10395530;28;20217;-69
2022/03/12 08:43:16;;;;;;;8.97;6.40;;;17.70;33.80;;;;;;10383118;28;20742;-69
2022/03/12 08:48:17;;;;;;;8.13;6.47;;;17.90;33.00;;;;;;10392695;28;20251;-69
2022/03/12 08:53:18;;;;;;;8.03;6.77;;;17.80;33.00;;;;;;10397864;28;20596;-69
2022/03/12 08:58:19;;;;;;;8.67;6.70;;;20.10;30.80;;;;;;10392559;28;20229;-70
2022/03/12 09:03:21;;;;;;;11.30;6.40;;;19.70;30.50;;;;;;10387961;28;20847;-69
2022/03/12 09:08:21;;;;;;;9.60;6.43;;;19.10;31.50;;;;;;10391846;28;20215;-72
2022/03/12 09:13:23;;;;;;;8.80;6.10;;;18.40;31.30;;;;;;10380735;28;20768;-72
2022/03/12 09:18:24;;;;;;;8.60;6.73;;;18.20;32.40;;;;;;10389564;28;20255;-71
2022/03/12 09:23:24;;;;;;;13.60;7.47;;;18.40;32.00;;;;;;10391245;28;20736;-72
2022/03/12 09:28:25;;;;;;;7.07;6.37;;;17.90;32.00;;;;;;10399422;28;20215;-73
2022/03/12 09:33:26;;;;;;;8.00;6.40;;;18.70;31.80;;;;;;10405009;28;20239;-73
2022/03/12 09:38:27;;;;;;;6.70;6.00;;;18.60;31.70;;;;;;10397250;28;20216;-73
2022/03/12 09:43:28;;;;;;;11.40;6.40;;;19.60;30.90;;;;;;10385384;28;20244;-70
2022/03/12 09:48:29;;;;;;;9.07;6.80;;;19.00;31.20;;;;;;10402202;28;20215;-75
2022/03/12 09:53:29;;;;;;;9.63;6.30;;;19.40;30.80;;;;;;10402476;28;20217;-75
2022/03/12 09:58:30;;;;;;;9.00;7.40;;;20.70;29.80;;;;;;10404027;28;20252;-76
2022/03/12 10:03:32;;;;;;;11.47;6.60;;;21.00;29.80;;;;;;10400628;28;20232;-76
2022/03/12 10:08:34;;;;;;;11.43;7.10;;;20.10;29.60;;;;;;10391090;28;20236;-76
2022/03/12 10:13:35;;;;;;;8.13;6.70;;;19.40;30.20;;;;;;10399441;28;20750;-74
2022/03/12 10:18:41;;;;;;;7.77;6.93;;;19.90;30.90;;;;;;10406484;28;20231;-78
2022/03/12 10:23:45;;;;;;;8.43;7.00;;;20.70;29.80;;;;;;10398736;28;20229;-76
2022/03/12 10:28:46;;;;;;;10.77;7.53;;;20.60;30.00;;;;;;10403270;28;20218;-75
2022/03/12 10:33:47;;;;;;;7.13;6.33;;;21.40;29.20;;;;;;10396327;28;20217;-75
2022/03/12 10:38:52;;;;;;;8.10;7.30;;;20.20;30.50;;;;;;10385655;28;20216;-75
2022/03/12 10:43:54;;;;;;;8.27;7.30;;;20.10;29.90;;;;;;10403608;28;20235;-74
2022/03/12 10:48:57;;;;;;;9.77;6.87;;;21.10;29.50;;;;;;10391231;28;20673;-74
2022/03/12 10:54:15;;;;;;;10.87;7.33;;;22.50;28.10;;;;;;10401153;28;20223;-74
2022/03/12 10:59:22;;;;;;;10.80;7.50;;;22.30;27.90;;;;;;10405174;28;20236;-74
2022/03/12 11:04:29;;;;;;;10.53;7.00;;;22.00;27.90;;;;;;10393176;28;20228;-74
2022/03/12 11:09:35;;;;;;;9.17;6.97;;;22.10;28.60;;;;;;10411255;28;20213;-74
2022/03/12 11:14:36;;;;;;;12.30;6.87;;;20.90;29.10;;;;;;10416110;28;20220;-73
2022/03/12 11:19:37;;;;;;;9.20;7.43;;;21.30;29.80;;;;;;10411642;28;20225;-73
2022/03/12 11:24:52;;;;;;;8.70;6.57;;;20.80;30.10;;;;;;10398795;28;20875;-73
2022/03/12 11:30:00;;;;;;;8.57;7.00;;;20.70;30.00;;;;;;10401002;28;20304;-73
2022/03/12 11:35:10;;;;;;;9.50;7.23;;;19.90;31.00;;;;;;10390922;28;20217;-74
2022/03/12 11:40:19;;;;;;;10.07;7.67;;;18.40;35.00;;;;;;10388935;28;20323;-73
2022/03/12 11:45:20;;;;;;;9.33;6.83;;;17.20;37.50;;;;;;10403047;28;20714;-74
2022/03/12 11:50:24;;;;;;;9.17;7.53;;;16.90;38.10;;;;;;10398518;28;20306;-74
2022/03/12 11:55:27;;;;;;;10.53;7.00;;;16.70;38.60;;;;;;10391785;28;20233;-74
2022/03/12 12:00:29;;;;;;;8.27;7.00;;;16.10;39.90;;;;;;10390991;28;20600;-74
2022/03/12 12:05:30;;;;;;;11.93;8.03;;;15.90;41.30;;;;;;10385121;28;20231;-76
2022/03/12 12:10:31;;;;;;;10.23;7.60;;;15.60;42.00;;;;;;10395817;28;20231;-76
2022/03/12 12:15:36;;;;;;;8.93;6.83;;;15.60;42.20;;;;;;10383024;28;20775;-72
2022/03/12 12:20:37;;;;;;;14.43;7.33;;;14.60;43.10;;;;;;10400988;28;20266;-69
2022/03/12 12:25:38;;;;;;;9.33;7.13;;;14.70;44.40;;;;;;10394790;28;20310;-72
2022/03/12 12:30:43;;;;;;;11.23;7.50;;;15.20;43.70;;;;;;10389805;28;20396;-72
2022/03/12 12:35:49;;;;;;;10.27;8.20;;;15.50;43.20;;;;;;10389164;28;20910;-72
2022/03/12 12:40:53;;;;;;;10.10;8.07;;;15.40;43.30;;;;;;10403904;28;20227;-72
2022/03/12 12:45:53;;;;;;;10.87;7.23;;;15.70;42.60;;;;;;10400723;28;20230;-71
2022/03/12 12:51:03;;;;;;;10.27;7.37;;;15.60;42.60;;;;;;10399893;28;20223;-74
2022/03/12 12:56:31;;;;;;;11.23;7.90;;;15.50;43.00;;;;;;10390718;28;20726;-72
2022/03/12 13:01:41;;;;;;;11.23;8.27;;;15.70;43.50;;;;;;10393016;28;20223;-75
2022/03/12 13:06:48;;;;;;;12.37;8.87;;;15.70;43.80;;;;;;10392529;28;20323;-74
2022/03/12 13:11:57;;;;;;;13.00;9.30;;;15.50;44.00;;;;;;10387583;28;20220;-74
2022/03/12 13:17:00;;;;;;;13.57;9.17;;;15.50;44.40;;;;;;10396103;28;20228;-76
2022/03/12 13:22:09;;;;;;;14.03;10.03;;;15.50;44.40;;;;;;10387190;28;20216;-75
2022/03/12 13:27:21;;;;;;;11.00;8.37;;;15.50;44.70;;;;;;10382302;28;20757;-74
2022/03/12 13:32:23;;;;;;;12.80;8.60;;;15.70;44.70;;;;;;10394571;28;20231;-77
2022/03/12 13:37:24;;;;;;;10.63;8.03;;;15.80;44.50;;;;;;10412275;28;20302;-77
2022/03/12 13:42:28;;;;;;;14.17;8.93;;;15.80;44.60;;;;;;10418152;28;20232;-76
2022/03/12 13:47:29;;;;;;;13.43;9.30;;;15.60;44.90;;;;;;10411080;28;20826;-74
2022/03/12 13:52:30;;;;;;;12.00;8.90;;;15.40;45.10;;;;;;10396177;28;20227;-73
2022/03/12 13:57:35;;;;;;;11.73;9.67;;;15.50;45.80;;;;;;10400429;28;20245;-74
2022/03/12 14:03:12;;;;;;;11.50;8.67;;;15.50;45.60;;;;;;10388516;28;20228;-75
2022/03/12 14:08:22;;;;;;;11.20;9.57;;;15.80;45.10;;;;;;10400839;28;20294;-75
2022/03/12 14:13:23;;;;;;;12.10;9.27;;;15.60;45.00;;;;;;10397872;28;20225;-76
2022/03/12 14:18:26;;;;;;;12.43;8.67;;;15.60;45.60;;;;;;10406893;28;20293;-74
2022/03/12 14:23:32;;;;;;;13.47;8.77;;;15.60;45.40;;;;;;10392729;28;20227;-74
2022/03/12 14:28:33;;;;;;;13.60;9.13;;;15.60;45.10;;;;;;10400062;28;20223;-76
2022/03/12 14:33:36;;;;;;;11.77;8.07;;;15.70;45.90;;;;;;10385789;28;20722;-75
2022/03/12 14:38:38;;;;;;;11.00;8.07;;;15.70;45.60;;;;;;10400046;28;20212;-76
2022/03/12 14:43:40;;;;;;;10.83;8.43;;;15.70;45.80;;;;;;10397945;28;20256;-74
2022/03/12 14:48:44;;;;;;;11.40;9.03;;;15.60;45.40;;;;;;10397818;28;20216;-73
2022/03/12 14:53:45;;;;;;;11.37;8.70;;;15.50;46.20;;;;;;10403154;28;20762;-75
2022/03/12 14:58:46;;;;;;;11.90;8.63;;;15.40;46.50;;;;;;10399690;28;20220;-74
2022/03/12 15:03:53;;;;;;;11.60;9.00;;;15.40;46.70;;;;;;10393115;28;20334;-75
2022/03/12 15:09:06;;;;;;;12.77;8.17;;;15.30;47.00;;;;;;10414161;28;20236;-74
2022/03/12 15:14:07;;;;;;;13.93;9.57;;;15.20;47.20;;;;;;10386085;28;20676;-72
2022/03/12 15:19:15;;;;;;;10.67;9.17;;;15.10;47.60;;;;;;10400613;28;20219;-73
2022/03/12 15:24:16;;;;;;;17.50;10.33;;;15.00;47.50;;;;;;10386918;28;20227;-73
2022/03/12 15:29:26;;;;;;;14.50;9.87;;;14.90;47.80;;;;;;10397449;28;20916;-74
2022/03/12 15:34:33;;;;;;;11.87;9.40;;;14.70;47.80;;;;;;10384022;28;20277;-73
2022/03/12 15:39:34;;;;;;;14.43;9.13;;;14.70;48.00;;;;;;10387363;28;20238;-73
2022/03/12 15:44:34;;;;;;;12.97;9.77;;;14.70;48.30;;;;;;10399027;28;20224;-74
2022/03/12 15:49:35;;;;;;;11.93;8.53;;;14.60;48.30;;;;;;10396885;28;20240;-74
2022/03/12 15:54:36;;;;;;;10.37;8.43;;;14.50;48.80;;;;;;10389908;28;20220;-74
2022/03/12 15:59:37;;;;;;;11.97;8.97;;;14.30;49.40;;;;;;10394507;28;20270;-75
2022/03/12 16:04:37;;;;;;;11.03;9.00;;;14.10;49.70;;;;;;10381907;28;20250;-74
2022/03/12 16:09:38;;;;;;;12.50;8.57;;;14.10;50.30;;;;;;10390895;28;20272;-75
2022/03/12 16:14:41;;;;;;;11.57;7.80;;;14.00;50.90;;;;;;10401596;28;20224;-74
2022/03/12 16:19:42;;;;;;;8.83;7.27;;;13.90;51.00;;;;;;10388397;28;20247;-75
2022/03/12 16:24:42;;;;;;;8.67;7.10;;;13.70;51.10;;;;;;10390331;28;20223;-75
2022/03/12 16:29:43;;;;;;;11.03;7.00;;;13.50;51.50;;;;;;10393564;28;20215;-74
2022/03/12 16:34:44;;;;;;;9.13;7.03;;;13.40;51.80;;;;;;10393378;28;20224;-75
2022/03/12 16:39:44;;;;;;;11.27;7.37;;;13.20;52.10;;;;;;10400948;28;20221;-75
2022/03/12 16:44:45;;;;;;;11.20;7.03;;;13.10;52.50;;;;;;10389520;28;20231;-75
2022/03/12 16:49:48;;;;;;;8.70;6.40;;;13.00;52.70;;;;;;10390111;28;20205;-75
2022/03/12 16:54:48;;;;;;;9.10;6.90;;;12.90;52.90;;;;;;10391578;28;20266;-75
2022/03/12 16:59:49;;;;;;;10.33;7.10;;;12.80;53.20;;;;;;10394715;28;20570;-74
2022/03/12 17:04:50;;;;;;;14.83;7.50;;;12.70;53.60;;;;;;10401118;28;20220;-76
2022/03/12 17:09:50;;;;;;;9.50;6.90;;;12.50;53.80;;;;;;10401924;28;20228;-75
2022/03/12 17:14:51;;;;;;;11.63;7.20;;;12.40;54.10;;;;;;10395627;28;20321;-76
2022/03/12 17:19:53;;;;;;;10.57;7.30;;;12.30;53.80;;;;;;10397855;28;20221;-76
2022/03/12 17:24:53;;;;;;;9.80;7.43;;;12.10;53.90;;;;;;10395450;28;20247;-75
2022/03/12 17:29:54;;;;;;;9.37;7.57;;;12.00;54.10;;;;;;10396858;28;20220;-76
2022/03/12 17:34:55;;;;;;;10.53;7.10;;;11.90;54.10;;;;;;10385524;28;20696;-75
2022/03/12 17:39:56;;;;;;;12.13;8.00;;;11.80;53.90;;;;;;10400816;28;20228;-75
2022/03/12 17:44:57;;;;;;;11.23;7.87;;;11.70;54.10;;;;;;10391200;28;20220;-74
2022/03/12 17:50:00;;;;;;;15.40;8.10;;;11.60;54.20;;;;;;10384487;28;20677;-75
2022/03/12 17:55:02;;;;;;;10.53;7.87;;;11.50;54.50;;;;;;10394612;28;20217;-76
2022/03/12 18:00:05;;;;;;;10.33;7.63;;;11.40;54.80;;;;;;10380789;28;20700;-74
2022/03/12 18:05:06;;;;;;;10.97;7.80;;;11.30;54.90;;;;;;10400807;28;20241;-74
2022/03/12 18:10:08;;;;;;;11.17;7.90;;;11.20;55.10;;;;;;10403370;28;20182;-74
2022/03/12 18:15:09;;;;;;;13.97;8.13;;;11.10;55.40;;;;;;10365425;28;20701;-75
2022/03/12 18:20:11;;;;;;;11.90;8.30;;;11.00;55.40;;;;;;10390155;28;20198;-76
2022/03/12 18:25:14;;;;;;;13.23;7.83;;;11.00;55.60;;;;;;10412790;28;20566;-76
2022/03/12 18:30:15;;;;;;;10.73;8.00;;;10.90;55.70;;;;;;10402206;28;20272;-75
2022/03/12 18:35:16;;;;;;;11.63;7.97;;;10.80;55.40;;;;;;10395148;28;20728;-75
2022/03/12 18:40:22;;;;;;;11.03;7.53;;;10.70;54.70;;;;;;10389038;28;20204;-75
2022/03/12 18:45:25;;;;;;;12.53;8.33;;;10.70;54.50;;;;;;10406814;28;20221;-77
2022/03/12 18:50:28;;;;;;;12.03;7.60;;;10.60;53.90;;;;;;10391529;28;20730;-75
2022/03/12 18:55:30;;;;;;;11.03;7.77;;;10.50;53.30;;;;;;10396421;28;20231;-75
2022/03/12 19:00:34;;;;;;;10.90;8.00;;;10.50;53.00;;;;;;10409705;28;20212;-77
2022/03/12 19:05:36;;;;;;;11.30;7.90;;;10.40;52.40;;;;;;10389232;28;21718;-75
2022/03/12 19:10:41;;;;;;;12.13;8.60;;;10.40;51.90;;;;;;10408277;28;20231;-75
2022/03/12 19:15:43;;;;;;;15.53;8.23;;;10.30;51.70;;;;;;10403156;28;20244;-74
2022/03/12 19:20:47;;;;;;;10.60;7.60;;;10.20;51.00;;;;;;10393642;28;20242;-75
2022/03/12 19:25:48;;;;;;;9.87;7.80;;;10.20;51.00;;;;;;10399681;28;20320;-74
2022/03/12 19:30:48;;;;;;;9.43;7.87;;;10.10;51.40;;;;;;10409575;28;20739;-74
2022/03/12 19:35:52;;;;;;;13.27;7.70;;;9.90;51.50;;;;;;10401146;28;20773;-74
2022/03/12 19:40:53;;;;;;;13.30;8.20;;;9.80;51.80;;;;;;10387280;28;20724;-75
2022/03/12 19:45:54;;;;;;;11.33;8.30;;;9.70;52.10;;;;;;10394720;28;20303;-75
2022/03/12 19:50:55;;;;;;;11.07;8.23;;;9.60;52.10;;;;;;10398686;28;20229;-74
2022/03/12 19:55:56;;;;;;;18.70;8.90;;;9.50;52.40;;;;;;10385415;28;20520;-75
2022/03/12 20:00:57;;;;;;;13.00;8.13;;;9.40;52.40;;;;;;10392823;28;20220;-75
2022/03/12 20:05:58;;;;;;;12.67;8.20;;;9.40;51.80;;;;;;10400498;28;20763;-74
2022/03/12 20:11:00;;;;;;;10.40;8.00;;;9.30;50.80;;;;;;10386024;28;20231;-76
2022/03/12 20:16:01;;;;;;;9.20;7.70;;;9.30;50.00;;;;;;10395121;28;20213;-76
2022/03/12 20:21:02;;;;;;;11.03;7.97;;;9.40;49.20;;;;;;10395232;28;20304;-74
2022/03/12 20:26:03;;;;;;;11.20;7.00;;;9.40;48.70;;;;;;10384280;28;20249;-74
2022/03/12 20:31:05;;;;;;;12.17;7.53;;;9.40;48.70;;;;;;10406687;28;20300;-75
2022/03/12 20:36:06;;;;;;;9.03;7.43;;;9.30;48.10;;;;;;10398561;28;20216;-74
2022/03/12 20:41:10;;;;;;;10.53;7.70;;;9.30;48.10;;;;;;10406630;28;20221;-74
2022/03/12 20:46:10;;;;;;;10.30;7.30;;;9.30;47.70;;;;;;10391309;28;20236;-74
2022/03/12 20:51:11;;;;;;;10.23;7.73;;;9.30;47.70;;;;;;10413699;28;20258;-74
2022/03/12 20:56:13;;;;;;;10.13;7.57;;;9.30;47.60;;;;;;10396222;28;20785;-74
2022/03/12 21:01:17;;;;;;;13.93;8.17;;;9.20;47.30;;;;;;10395787;28;20221;-76
2022/03/12 21:06:18;;;;;;;9.83;7.63;;;9.20;48.00;;;;;;10383001;28;20235;-74
2022/03/12 21:11:19;;;;;;;10.67;7.47;;;9.20;47.50;;;;;;10387164;28;20940;-75
2022/03/12 21:16:20;;;;;;;10.47;7.60;;;9.10;47.50;;;;;;10400755;28;20228;-74
2022/03/12 21:21:20;;;;;;;11.10;8.27;;;9.00;47.30;;;;;;10393725;28;20729;-74
2022/03/12 21:26:26;;;;;;;11.70;7.17;;;9.10;47.20;;;;;;10394154;28;20359;-75
2022/03/12 21:31:27;;;;;;;10.67;7.63;;;9.00;47.10;;;;;;10405288;28;20229;-75
2022/03/12 21:36:28;;;;;;;10.77;7.50;;;9.00;46.70;;;;;;10401563;28;20212;-74
2022/03/12 21:41:28;;;;;;;11.20;7.87;;;8.90;46.30;;;;;;10387235;28;20993;-74
2022/03/12 21:46:29;;;;;;;10.07;7.90;;;8.90;46.00;;;;;;10393108;28;20786;-75
2022/03/12 21:51:30;;;;;;;11.73;8.40;;;8.90;46.30;;;;;;10386039;28;20625;-76
2022/03/12 21:56:30;;;;;;;9.90;7.73;;;8.70;47.60;;;;;;10409268;28;20580;-74
2022/03/12 22:01:32;;;;;;;12.63;7.80;;;8.50;48.50;;;;;;10414250;28;20228;-75
2022/03/12 22:06:34;;;;;;;10.50;8.00;;;8.30;49.60;;;;;;10395363;28;20316;-75
2022/03/12 22:11:40;;;;;;;12.53;7.60;;;8.10;51.20;;;;;;10412400;28;20224;-74
2022/03/12 22:16:41;;;;;;;13.77;8.50;;;8.00;51.10;;;;;;10397158;28;20221;-75
2022/03/12 22:21:44;;;;;;;12.17;9.40;;;7.90;52.20;;;;;;10396954;28;20247;-75
2022/03/12 22:26:45;;;;;;;13.47;9.97;;;7.80;52.50;;;;;;10401329;28;20256;-75
2022/03/12 22:31:46;;;;;;;13.63;10.27;;;7.70;51.30;;;;;;10406164;28;20220;-75
2022/03/12 22:36:47;;;;;;;13.40;8.50;;;7.70;51.00;;;;;;10401565;28;20226;-74
2022/03/12 22:41:47;;;;;;;13.70;8.93;;;7.70;51.10;;;;;;10396337;28;20298;-74
2022/03/12 22:46:48;;;;;;;12.83;8.47;;;7.80;50.40;;;;;;10390220;28;20224;-74
2022/03/12 22:51:50;;;;;;;10.73;8.30;;;7.80;50.40;;;;;;10401199;28;20229;-74
2022/03/12 22:56:50;;;;;;;11.60;8.57;;;7.60;51.00;;;;;;10389217;28;20237;-74
2022/03/12 23:01:51;;;;;;;12.60;8.90;;;7.50;51.80;;;;;;10395667;28;20692;-73
2022/03/12 23:12:17;;;;;;;12.60;9.00;;;7.20;53.20;;;;;;10392073;28;20797;-73
2022/03/12 23:17:23;;;;;;;10.93;8.13;;;7.00;53.80;;;;;;10400436;28;20227;-74
2022/03/12 23:22:24;;;;;;;11.60;8.60;;;6.90;54.50;;;;;;10403560;28;20224;-73
2022/03/12 23:27:34;;;;;;;14.60;9.33;;;6.70;54.70;;;;;;10394425;28;20315;-75
2022/03/12 23:32:35;;;;;;;15.30;8.93;;;6.60;55.30;;;;;;10391081;28;20630;-74
2022/03/12 23:37:37;;;;;;;14.80;9.50;;;6.50;55.70;;;;;;10394590;28;20251;-74
2022/03/12 23:42:42;;;;;;;12.87;9.27;;;6.40;55.80;;;;;;10389888;28;20237;-74
2022/03/12 23:47:46;;;;;;;13.87;10.50;;;6.40;56.30;;;;;;10397552;28;20235;-74
2022/03/12 23:52:47;;;;;;;16.33;9.37;;;6.30;56.30;;;;;;10394208;28;20308;-74
2022/03/12 23:57:48;;;;;;;15.47;10.57;;;6.30;56.20;;;;;;10393960;28;20212;-73
